sensor_id;sensor_type;location;lat;lon;timestamp;P1;durP1;ratioP1;P2;durP2;ratioP2
5787;SDS011;2920;48.158;12.254;2022-09-09T00:00:53;3.33;;;1.50;;
5787;SDS011;2920;48.158;12.254;2022-09-09T00:12:33;1.42;;;1.25;;
5787;SDS011;2920;48.158;12.254;2022-09-09T00:17:04;1.70;;;1.60;;
5787;SDS011;2920;48.158;12.254;2022-09-09T00:19:40;2.47;;;1.80;;
5787;SDS011;2920;48.158;12.254;2022-09-09T00:22:19;4.40;;;1.73;;
5787;SDS011;2920;48.158;12.254;2022-09-09T00:24:51;4.25;;;1.73;;
5787;SDS011;2920;48.158;12.254;2022-09-09T00:27:54;1.30;;;1.20;;
5787;SDS011;2920;48.158;12.254;2022-09-09T00:30:20;2.30;;;1.52;;
5787;SDS011;2920;48.158;12.254;2022-09-09T00:32:49;2.25;;;1.70;;
5787;SDS011;2920;48.158;12.254;2022-09-09T00:37:55;5.43;;;1.80;;
5787;SDS011;2920;48.158;12.254;2022-09-09T00:40:31;1.35;;;1.25;;
5787;SDS011;2920;48.158;12.254;2022-09-09T00:49:20;3.28;;;1.52;;
5787;SDS011;2920;48.158;12.254;2022-09-09T00:57:34;3.50;;;2.10;;
5787;SDS011;2920;48.158;12.254;2022-09-09T01:05:27;2.88;;;2.10;;
5787;SDS011;2920;48.158;12.254;2022-09-09T01:08:03;2.60;;;1.70;;
5787;SDS011;2920;48.158;12.254;2022-09-09T01:13:31;3.33;;;2.28;;
5787;SDS011;2920;48.158;12.254;2022-09-09T01:15:59;2.08;;;1.60;;
5787;SDS011;2920;48.158;12.254;2022-09-09T01:18:58;4.75;;;2.13;;
5787;SDS011;2920;48.158;12.254;2022-09-09T01:29:15;5.38;;;2.53;;
5787;SDS011;2920;48.158;12.254;2022-09-09T01:31:50;4.05;;;2.30;;
5787;SDS011;2920;48.158;12.254;2022-09-09T01:34:18;3.10;;;2.40;;
5787;SDS011;2920;48.158;12.254;2022-09-09T01:36:45;4.63;;;2.50;;
5787;SDS011;2920;48.158;12.254;2022-09-09T01:39:16;3.15;;;2.00;;
5787;SDS011;2920;48.158;12.254;2022-09-09T01:41:42;4.90;;;2.05;;
5787;SDS011;2920;48.158;12.254;2022-09-09T01:44:07;5.40;;;1.77;;
5787;SDS011;2920;48.158;12.254;2022-09-09T01:46:33;2.78;;;2.13;;
5787;SDS011;2920;48.158;12.254;2022-09-09T01:48:58;2.95;;;2.30;;
5787;SDS011;2920;48.158;12.254;2022-09-09T01:51:25;2.10;;;1.80;;
5787;SDS011;2920;48.158;12.254;2022-09-09T01:53:51;2.58;;;1.80;;
5787;SDS011;2920;48.158;12.254;2022-09-09T01:59:30;1.48;;;1.38;;
5787;SDS011;2920;48.158;12.254;2022-09-09T02:06:59;2.40;;;1.77;;
5787;SDS011;2920;48.158;12.254;2022-09-09T02:09:25;2.97;;;2.15;;
5787;SDS011;2920;48.158;12.254;2022-09-09T02:12:00;2.15;;;1.42;;
5787;SDS011;2920;48.158;12.254;2022-09-09T02:14:49;1.98;;;1.60;;
5787;SDS011;2920;48.158;12.254;2022-09-09T02:17:22;3.60;;;2.08;;
5787;SDS011;2920;48.158;12.254;2022-09-09T02:20:14;2.45;;;1.45;;
5787;SDS011;2920;48.158;12.254;2022-09-09T02:22:41;2.28;;;1.60;;
5787;SDS011;2920;48.158;12.254;2022-09-09T02:25:09;3.87;;;1.60;;
5787;SDS011;2920;48.158;12.254;2022-09-09T02:27:35;2.38;;;1.73;;
5787;SDS011;2920;48.158;12.254;2022-09-09T02:30:01;1.98;;;1.65;;
5787;SDS011;2920;48.158;12.254;2022-09-09T02:32:28;2.17;;;1.50;;
5787;SDS011;2920;48.158;12.254;2022-09-09T02:35:01;1.27;;;1.17;;
5787;SDS011;2920;48.158;12.254;2022-09-09T02:37:32;1.88;;;1.55;;
5787;SDS011;2920;48.158;12.254;2022-09-09T02:40:06;1.77;;;1.40;;
5787;SDS011;2920;48.158;12.254;2022-09-09T02:42:38;2.17;;;1.50;;
5787;SDS011;2920;48.158;12.254;2022-09-09T02:45:05;2.35;;;1.20;;
5787;SDS011;2920;48.158;12.254;2022-09-09T02:47:35;2.03;;;1.60;;
5787;SDS011;2920;48.158;12.254;2022-09-09T02:57:53;3.55;;;1.88;;
5787;SDS011;2920;48.158;12.254;2022-09-09T03:00:25;2.38;;;1.50;;
5787;SDS011;2920;48.158;12.254;2022-09-09T03:02:52;2.35;;;1.40;;
5787;SDS011;2920;48.158;12.254;2022-09-09T03:05:19;3.95;;;1.30;;
5787;SDS011;2920;48.158;12.254;2022-09-09T03:07:45;1.85;;;1.40;;
5787;SDS011;2920;48.158;12.254;2022-09-09T03:10:10;1.55;;;1.33;;
5787;SDS011;2920;48.158;12.254;2022-09-09T03:12:35;2.50;;;1.30;;
5787;SDS011;2920;48.158;12.254;2022-09-09T03:15:01;2.20;;;1.30;;
5787;SDS011;2920;48.158;12.254;2022-09-09T03:17:26;1.50;;;1.30;;
5787;SDS011;2920;48.158;12.254;2022-09-09T03:19:53;1.88;;;1.50;;
5787;SDS011;2920;48.158;12.254;2022-09-09T03:22:19;1.63;;;1.35;;
5787;SDS011;2920;48.158;12.254;2022-09-09T03:24:46;1.27;;;1.15;;
5787;SDS011;2920;48.158;12.254;2022-09-09T03:27:11;6.15;;;1.58;;
5787;SDS011;2920;48.158;12.254;2022-09-09T03:29:39;1.90;;;1.50;;
5787;SDS011;2920;48.158;12.254;2022-09-09T03:32:04;2.47;;;1.50;;
5787;SDS011;2920;48.158;12.254;2022-09-09T03:34:29;4.82;;;1.80;;
5787;SDS011;2920;48.158;12.254;2022-09-09T03:36:55;5.03;;;1.65;;
5787;SDS011;2920;48.158;12.254;2022-09-09T03:39:20;2.95;;;2.10;;
5787;SDS011;2920;48.158;12.254;2022-09-09T03:41:45;4.30;;;1.52;;
5787;SDS011;2920;48.158;12.254;2022-09-09T03:44:13;3.13;;;1.70;;
5787;SDS011;2920;48.158;12.254;2022-09-09T03:46:38;1.80;;;1.55;;
5787;SDS011;2920;48.158;12.254;2022-09-09T03:49:04;3.40;;;1.80;;
5787;SDS011;2920;48.158;12.254;2022-09-09T03:51:29;2.15;;;1.70;;
5787;SDS011;2920;48.158;12.254;2022-09-09T03:53:55;2.63;;;1.90;;
5787;SDS011;2920;48.158;12.254;2022-09-09T03:56:21;4.05;;;2.35;;
5787;SDS011;2920;48.158;12.254;2022-09-09T03:58:47;3.13;;;1.90;;
5787;SDS011;2920;48.158;12.254;2022-09-09T04:01:12;1.95;;;1.50;;
5787;SDS011;2920;48.158;12.254;2022-09-09T04:03:39;1.77;;;1.42;;
5787;SDS011;2920;48.158;12.254;2022-09-09T04:06:05;1.70;;;1.55;;
5787;SDS011;2920;48.158;12.254;2022-09-09T04:08:31;1.80;;;1.60;;
5787;SDS011;2920;48.158;12.254;2022-09-09T04:10:57;5.05;;;2.53;;
5787;SDS011;2920;48.158;12.254;2022-09-09T04:13:23;2.30;;;1.77;;
5787;SDS011;2920;48.158;12.254;2022-09-09T04:15:50;3.80;;;2.30;;
5787;SDS011;2920;48.158;12.254;2022-09-09T04:18:19;2.67;;;1.63;;
5787;SDS011;2920;48.158;12.254;2022-09-09T04:20:48;2.17;;;1.70;;
5787;SDS011;2920;48.158;12.254;2022-09-09T04:23:14;3.15;;;2.20;;
5787;SDS011;2920;48.158;12.254;2022-09-09T04:25:52;2.47;;;1.58;;
5787;SDS011;2920;48.158;12.254;2022-09-09T04:28:19;1.80;;;1.50;;
5787;SDS011;2920;48.158;12.254;2022-09-09T04:30:46;4.40;;;2.17;;
5787;SDS011;2920;48.158;12.254;2022-09-09T04:33:11;4.45;;;2.00;;
5787;SDS011;2920;48.158;12.254;2022-09-09T04:35:37;2.58;;;1.90;;
5787;SDS011;2920;48.158;12.254;2022-09-09T04:38:03;2.15;;;1.92;;
5787;SDS011;2920;48.158;12.254;2022-09-09T04:40:30;2.88;;;1.80;;
5787;SDS011;2920;48.158;12.254;2022-09-09T04:42:59;2.15;;;1.77;;
5787;SDS011;2920;48.158;12.254;2022-09-09T04:47:51;2.00;;;1.75;;
5787;SDS011;2920;48.158;12.254;2022-09-09T04:50:17;3.63;;;1.80;;
5787;SDS011;2920;48.158;12.254;2022-09-09T04:52:43;2.38;;;1.80;;
5787;SDS011;2920;48.158;12.254;2022-09-09T04:55:08;2.05;;;1.60;;
5787;SDS011;2920;48.158;12.254;2022-09-09T04:57:34;2.20;;;1.63;;
5787;SDS011;2920;48.158;12.254;2022-09-09T05:00:00;4.00;;;1.80;;
5787;SDS011;2920;48.158;12.254;2022-09-09T05:02:26;1.65;;;1.52;;
5787;SDS011;2920;48.158;12.254;2022-09-09T05:04:52;3.58;;;1.88;;
5787;SDS011;2920;48.158;12.254;2022-09-09T05:07:17;5.78;;;1.75;;
5787;SDS011;2920;48.158;12.254;2022-09-09T05:09:42;2.30;;;1.63;;
5787;SDS011;2920;48.158;12.254;2022-09-09T05:12:08;1.40;;;1.30;;
5787;SDS011;2920;48.158;12.254;2022-09-09T05:14:33;1.63;;;1.33;;
5787;SDS011;2920;48.158;12.254;2022-09-09T05:16:59;1.95;;;0.93;;
5787;SDS011;2920;48.158;12.254;2022-09-09T05:19:24;2.60;;;1.65;;
5787;SDS011;2920;48.158;12.254;2022-09-09T05:21:49;3.63;;;1.50;;
5787;SDS011;2920;48.158;12.254;2022-09-09T05:24:15;2.83;;;1.30;;
5787;SDS011;2920;48.158;12.254;2022-09-09T05:26:40;1.42;;;1.10;;
5787;SDS011;2920;48.158;12.254;2022-09-09T05:29:06;1.38;;;1.27;;
5787;SDS011;2920;48.158;12.254;2022-09-09T05:31:31;6.90;;;1.50;;
5787;SDS011;2920;48.158;12.254;2022-09-09T05:33:57;1.52;;;1.27;;
5787;SDS011;2920;48.158;12.254;2022-09-09T05:36:23;2.08;;;1.50;;
5787;SDS011;2920;48.158;12.254;2022-09-09T05:38:49;1.33;;;1.23;;
5787;SDS011;2920;48.158;12.254;2022-09-09T05:41:15;2.63;;;1.35;;
5787;SDS011;2920;48.158;12.254;2022-09-09T05:43:42;1.95;;;1.20;;
5787;SDS011;2920;48.158;12.254;2022-09-09T05:46:13;1.40;;;1.20;;
5787;SDS011;2920;48.158;12.254;2022-09-09T05:48:40;2.08;;;1.55;;
5787;SDS011;2920;48.158;12.254;2022-09-09T05:51:08;1.55;;;1.30;;
5787;SDS011;2920;48.158;12.254;2022-09-09T05:53:35;1.90;;;1.30;;
5787;SDS011;2920;48.158;12.254;2022-09-09T05:56:04;2.97;;;1.90;;
5787;SDS011;2920;48.158;12.254;2022-09-09T05:58:31;2.42;;;2.03;;
5787;SDS011;2920;48.158;12.254;2022-09-09T06:01:04;1.33;;;1.15;;
5787;SDS011;2920;48.158;12.254;2022-09-09T06:03:30;2.67;;;1.90;;
5787;SDS011;2920;48.158;12.254;2022-09-09T06:05:59;4.22;;;1.77;;
5787;SDS011;2920;48.158;12.254;2022-09-09T06:08:25;1.80;;;1.50;;
5787;SDS011;2920;48.158;12.254;2022-09-09T06:10:50;1.92;;;1.50;;
5787;SDS011;2920;48.158;12.254;2022-09-09T06:13:16;2.28;;;1.80;;
5787;SDS011;2920;48.158;12.254;2022-09-09T06:15:49;1.88;;;1.58;;
5787;SDS011;2920;48.158;12.254;2022-09-09T06:18:18;2.67;;;1.98;;
5787;SDS011;2920;48.158;12.254;2022-09-09T06:20:54;2.00;;;1.70;;
5787;SDS011;2920;48.158;12.254;2022-09-09T06:23:20;1.88;;;1.70;;
5787;SDS011;2920;48.158;12.254;2022-09-09T06:25:45;2.30;;;1.85;;
5787;SDS011;2920;48.158;12.254;2022-09-09T06:28:11;2.10;;;1.60;;
5787;SDS011;2920;48.158;12.254;2022-09-09T06:30:36;2.15;;;1.60;;
5787;SDS011;2920;48.158;12.254;2022-09-09T06:33:01;2.58;;;1.60;;
5787;SDS011;2920;48.158;12.254;2022-09-09T06:35:27;2.40;;;1.85;;
5787;SDS011;2920;48.158;12.254;2022-09-09T06:37:53;1.88;;;1.27;;
5787;SDS011;2920;48.158;12.254;2022-09-09T06:40:18;4.32;;;1.40;;
5787;SDS011;2920;48.158;12.254;2022-09-09T06:42:44;1.63;;;1.10;;
5787;SDS011;2920;48.158;12.254;2022-09-09T06:45:09;0.85;;;0.85;;
5787;SDS011;2920;48.158;12.254;2022-09-09T06:47:35;1.45;;;1.35;;
5787;SDS011;2920;48.158;12.254;2022-09-09T06:50:00;1.45;;;1.20;;
5787;SDS011;2920;48.158;12.254;2022-09-09T06:52:25;1.20;;;1.10;;
5787;SDS011;2920;48.158;12.254;2022-09-09T06:54:51;1.42;;;0.98;;
5787;SDS011;2920;48.158;12.254;2022-09-09T06:57:16;1.40;;;1.05;;
5787;SDS011;2920;48.158;12.254;2022-09-09T06:59:41;1.17;;;1.05;;
5787;SDS011;2920;48.158;12.254;2022-09-09T07:02:07;0.85;;;0.85;;
5787;SDS011;2920;48.158;12.254;2022-09-09T07:04:33;0.80;;;0.80;;
5787;SDS011;2920;48.158;12.254;2022-09-09T07:06:58;1.90;;;1.10;;
5787;SDS011;2920;48.158;12.254;2022-09-09T07:09:23;2.75;;;0.95;;
5787;SDS011;2920;48.158;12.254;2022-09-09T07:11:49;1.17;;;1.00;;
5787;SDS011;2920;48.158;12.254;2022-09-09T07:14:17;2.78;;;1.20;;
5787;SDS011;2920;48.158;12.254;2022-09-09T07:16:43;1.65;;;1.38;;
5787;SDS011;2920;48.158;12.254;2022-09-09T07:19:09;0.70;;;0.70;;
5787;SDS011;2920;48.158;12.254;2022-09-09T07:21:36;1.40;;;0.93;;
5787;SDS011;2920;48.158;12.254;2022-09-09T07:24:01;0.88;;;0.88;;
5787;SDS011;2920;48.158;12.254;2022-09-09T07:26:28;1.13;;;0.95;;
5787;SDS011;2920;48.158;12.254;2022-09-09T07:28:54;2.40;;;1.00;;
5787;SDS011;2920;48.158;12.254;2022-09-09T07:31:27;3.50;;;1.30;;
5787;SDS011;2920;48.158;12.254;2022-09-09T07:33:55;1.10;;;0.80;;
5787;SDS011;2920;48.158;12.254;2022-09-09T07:36:25;1.40;;;1.10;;
5787;SDS011;2920;48.158;12.254;2022-09-09T07:38:59;1.90;;;1.40;;
5787;SDS011;2920;48.158;12.254;2022-09-09T07:41:28;2.83;;;1.10;;
5787;SDS011;2920;48.158;12.254;2022-09-09T07:43:55;1.88;;;1.20;;
5787;SDS011;2920;48.158;12.254;2022-09-09T07:46:21;2.95;;;1.20;;
5787;SDS011;2920;48.158;12.254;2022-09-09T07:48:49;3.05;;;1.63;;
5787;SDS011;2920;48.158;12.254;2022-09-09T07:51:16;1.33;;;1.08;;
5787;SDS011;2920;48.158;12.254;2022-09-09T07:53:43;0.90;;;0.80;;
5787;SDS011;2920;48.158;12.254;2022-09-09T07:56:10;2.47;;;1.30;;
5787;SDS011;2920;48.158;12.254;2022-09-09T07:58:37;1.63;;;1.13;;
5787;SDS011;2920;48.158;12.254;2022-09-09T08:01:10;5.20;;;1.58;;
5787;SDS011;2920;48.158;12.254;2022-09-09T08:03:47;1.55;;;1.30;;
5787;SDS011;2920;48.158;12.254;2022-09-09T08:06:17;1.88;;;1.58;;
5787;SDS011;2920;48.158;12.254;2022-09-09T08:08:42;1.23;;;1.00;;
5787;SDS011;2920;48.158;12.254;2022-09-09T08:13:35;2.28;;;1.10;;
5787;SDS011;2920;48.158;12.254;2022-09-09T08:16:14;1.27;;;0.98;;
5787;SDS011;2920;48.158;12.254;2022-09-09T08:21:15;4.05;;;1.23;;
5787;SDS011;2920;48.158;12.254;2022-09-09T08:23:46;2.88;;;1.20;;
5787;SDS011;2920;48.158;12.254;2022-09-09T08:26:15;1.75;;;1.30;;
5787;SDS011;2920;48.158;12.254;2022-09-09T08:28:42;3.25;;;1.60;;
5787;SDS011;2920;48.158;12.254;2022-09-09T08:33:41;4.50;;;1.65;;
5787;SDS011;2920;48.158;12.254;2022-09-09T08:36:09;3.72;;;1.80;;
5787;SDS011;2920;48.158;12.254;2022-09-09T08:38:35;3.97;;;1.80;;
5787;SDS011;2920;48.158;12.254;2022-09-09T08:41:06;2.30;;;1.50;;
5787;SDS011;2920;48.158;12.254;2022-09-09T08:43:37;3.65;;;1.92;;
5787;SDS011;2920;48.158;12.254;2022-09-09T08:46:10;2.42;;;1.52;;
5787;SDS011;2920;48.158;12.254;2022-09-09T08:51:19;2.08;;;1.55;;
5787;SDS011;2920;48.158;12.254;2022-09-09T08:53:46;3.35;;;1.90;;
5787;SDS011;2920;48.158;12.254;2022-09-09T08:56:14;1.98;;;1.27;;
5787;SDS011;2920;48.158;12.254;2022-09-09T08:58:47;2.00;;;1.77;;
5787;SDS011;2920;48.158;12.254;2022-09-09T09:01:20;2.85;;;1.80;;
5787;SDS011;2920;48.158;12.254;2022-09-09T09:11:37;2.58;;;1.60;;
5787;SDS011;2920;48.158;12.254;2022-09-09T09:14:07;2.72;;;1.63;;
5787;SDS011;2920;48.158;12.254;2022-09-09T09:16:38;1.55;;;1.10;;
5787;SDS011;2920;48.158;12.254;2022-09-09T09:19:24;2.30;;;1.33;;
5787;SDS011;2920;48.158;12.254;2022-09-09T09:24:54;2.13;;;1.58;;
5787;SDS011;2920;48.158;12.254;2022-09-09T09:30:00;2.10;;;1.40;;
5787;SDS011;2920;48.158;12.254;2022-09-09T09:32:28;2.25;;;1.33;;
5787;SDS011;2920;48.158;12.254;2022-09-09T09:34:58;2.28;;;1.38;;
5787;SDS011;2920;48.158;12.254;2022-09-09T09:37:28;2.15;;;1.48;;
5787;SDS011;2920;48.158;12.254;2022-09-09T09:39:55;2.55;;;1.60;;
5787;SDS011;2920;48.158;12.254;2022-09-09T09:42:20;1.52;;;1.15;;
5787;SDS011;2920;48.158;12.254;2022-09-09T09:44:46;1.48;;;1.25;;
5787;SDS011;2920;48.158;12.254;2022-09-09T09:47:18;1.20;;;1.10;;
5787;SDS011;2920;48.158;12.254;2022-09-09T09:49:51;1.38;;;1.27;;
5787;SDS011;2920;48.158;12.254;2022-09-09T09:52:20;1.55;;;1.23;;
5787;SDS011;2920;48.158;12.254;2022-09-09T09:54:49;3.33;;;1.30;;
5787;SDS011;2920;48.158;12.254;2022-09-09T09:57:15;1.50;;;1.10;;
5787;SDS011;2920;48.158;12.254;2022-09-09T09:59:41;1.80;;;1.17;;
5787;SDS011;2920;48.158;12.254;2022-09-09T10:02:21;4.47;;;1.30;;
5787;SDS011;2920;48.158;12.254;2022-09-09T10:05:01;1.55;;;1.30;;
5787;SDS011;2920;48.158;12.254;2022-09-09T10:07:26;1.65;;;1.02;;
5787;SDS011;2920;48.158;12.254;2022-09-09T10:09:55;1.05;;;1.00;;
5787;SDS011;2920;48.158;12.254;2022-09-09T10:17:54;1.60;;;1.23;;
5787;SDS011;2920;48.158;12.254;2022-09-09T10:23:29;2.35;;;1.20;;
5787;SDS011;2920;48.158;12.254;2022-09-09T10:34:54;2.20;;;1.23;;
5787;SDS011;2920;48.158;12.254;2022-09-09T10:40:17;2.22;;;1.30;;
5787;SDS011;2920;48.158;12.254;2022-09-09T10:42:46;2.28;;;1.23;;
5787;SDS011;2920;48.158;12.254;2022-09-09T10:45:18;2.38;;;1.30;;
5787;SDS011;2920;48.158;12.254;2022-09-09T10:50:55;2.70;;;1.30;;
5787;SDS011;2920;48.158;12.254;2022-09-09T10:56:10;1.55;;;1.27;;
5787;SDS011;2920;48.158;12.254;2022-09-09T10:58:44;1.98;;;1.67;;
5787;SDS011;2920;48.158;12.254;2022-09-09T11:01:20;3.15;;;1.63;;
5787;SDS011;2920;48.158;12.254;2022-09-09T11:03:49;2.40;;;1.45;;
5787;SDS011;2920;48.158;12.254;2022-09-09T11:06:22;2.42;;;1.60;;
5787;SDS011;2920;48.158;12.254;2022-09-09T11:08:53;1.92;;;1.50;;
5787;SDS011;2920;48.158;12.254;2022-09-09T11:11:34;1.73;;;1.50;;
5787;SDS011;2920;48.158;12.254;2022-09-09T11:16:57;2.70;;;1.38;;
5787;SDS011;2920;48.158;12.254;2022-09-09T11:24:39;3.08;;;1.73;;
5787;SDS011;2920;48.158;12.254;2022-09-09T11:29:50;1.27;;;0.90;;
5787;SDS011;2920;48.158;12.254;2022-09-09T11:35:21;1.75;;;1.42;;
5787;SDS011;2920;48.158;12.254;2022-09-09T11:40:43;1.65;;;1.13;;
5787;SDS011;2920;48.158;12.254;2022-09-09T11:43:09;2.53;;;1.48;;
5787;SDS011;2920;48.158;12.254;2022-09-09T11:45:37;6.38;;;2.17;;
5787;SDS011;2920;48.158;12.254;2022-09-09T11:48:04;1.85;;;1.40;;
5787;SDS011;2920;48.158;12.254;2022-09-09T11:53:05;2.92;;;1.27;;
5787;SDS011;2920;48.158;12.254;2022-09-09T11:55:47;2.25;;;1.40;;
5787;SDS011;2920;48.158;12.254;2022-09-09T11:58:17;1.38;;;1.27;;
5787;SDS011;2920;48.158;12.254;2022-09-09T12:00:44;2.08;;;1.35;;
5787;SDS011;2920;48.158;12.254;2022-09-09T12:06:13;3.53;;;1.80;;
5787;SDS011;2920;48.158;12.254;2022-09-09T12:08:43;36.42;;;3.67;;
5787;SDS011;2920;48.158;12.254;2022-09-09T12:11:10;8.55;;;1.75;;
5787;SDS011;2920;48.158;12.254;2022-09-09T12:13:36;2.00;;;1.33;;
5787;SDS011;2920;48.158;12.254;2022-09-09T12:16:01;28.63;;;3.08;;
5787;SDS011;2920;48.158;12.254;2022-09-09T12:18:37;3.35;;;1.40;;
5787;SDS011;2920;48.158;12.254;2022-09-09T12:29:48;4.43;;;1.20;;
5787;SDS011;2920;48.158;12.254;2022-09-09T12:32:23;5.53;;;1.20;;
5787;SDS011;2920;48.158;12.254;2022-09-09T12:34:51;3.28;;;1.00;;
5787;SDS011;2920;48.158;12.254;2022-09-09T12:37:21;6.00;;;1.08;;
5787;SDS011;2920;48.158;12.254;2022-09-09T12:40:00;0.90;;;0.80;;
5787;SDS011;2920;48.158;12.254;2022-09-09T12:42:28;1.02;;;0.93;;
5787;SDS011;2920;48.158;12.254;2022-09-09T12:44:54;2.35;;;1.00;;
5787;SDS011;2920;48.158;12.254;2022-09-09T12:47:21;1.10;;;1.00;;
5787;SDS011;2920;48.158;12.254;2022-09-09T12:49:48;0.73;;;0.73;;
5787;SDS011;2920;48.158;12.254;2022-09-09T12:52:17;1.50;;;0.90;;
5787;SDS011;2920;48.158;12.254;2022-09-09T12:54:47;1.77;;;0.73;;
5787;SDS011;2920;48.158;12.254;2022-09-09T12:57:13;2.22;;;0.82;;
5787;SDS011;2920;48.158;12.254;2022-09-09T12:59:40;2.92;;;1.10;;
5787;SDS011;2920;48.158;12.254;2022-09-09T13:02:26;0.85;;;0.85;;
5787;SDS011;2920;48.158;12.254;2022-09-09T13:04:52;1.58;;;1.00;;
5787;SDS011;2920;48.158;12.254;2022-09-09T13:07:19;2.13;;;0.90;;
5787;SDS011;2920;48.158;12.254;2022-09-09T13:09:48;1.05;;;0.95;;
5787;SDS011;2920;48.158;12.254;2022-09-09T13:12:21;0.60;;;0.60;;
5787;SDS011;2920;48.158;12.254;2022-09-09T13:14:48;1.25;;;1.00;;
5787;SDS011;2920;48.158;12.254;2022-09-09T13:17:25;2.35;;;0.93;;
5787;SDS011;2920;48.158;12.254;2022-09-09T13:19:54;1.77;;;1.00;;
5787;SDS011;2920;48.158;12.254;2022-09-09T13:27:38;3.83;;;1.42;;
5787;SDS011;2920;48.158;12.254;2022-09-09T13:38:56;3.22;;;1.42;;
5787;SDS011;2920;48.158;12.254;2022-09-09T13:41:26;0.80;;;0.80;;
5787;SDS011;2920;48.158;12.254;2022-09-09T13:43:55;0.90;;;0.90;;
5787;SDS011;2920;48.158;12.254;2022-09-09T13:48:59;0.80;;;0.80;;
5787;SDS011;2920;48.158;12.254;2022-09-09T13:51:29;2.38;;;1.10;;
5787;SDS011;2920;48.158;12.254;2022-09-09T13:53:59;0.93;;;0.70;;
5787;SDS011;2920;48.158;12.254;2022-09-09T13:56:25;1.10;;;0.98;;
5787;SDS011;2920;48.158;12.254;2022-09-09T13:58:50;2.30;;;1.13;;
5787;SDS011;2920;48.158;12.254;2022-09-09T14:01:16;2.47;;;1.00;;
5787;SDS011;2920;48.158;12.254;2022-09-09T14:03:41;3.53;;;0.98;;
5787;SDS011;2920;48.158;12.254;2022-09-09T14:06:07;1.88;;;1.30;;
5787;SDS011;2920;48.158;12.254;2022-09-09T14:08:32;1.65;;;0.95;;
5787;SDS011;2920;48.158;12.254;2022-09-09T14:11:02;2.10;;;1.10;;
5787;SDS011;2920;48.158;12.254;2022-09-09T14:13:28;1.80;;;0.93;;
5787;SDS011;2920;48.158;12.254;2022-09-09T14:15:53;3.85;;;2.00;;
5787;SDS011;2920;48.158;12.254;2022-09-09T14:18:18;1.83;;;1.00;;
5787;SDS011;2920;48.158;12.254;2022-09-09T14:20:44;1.15;;;1.05;;
5787;SDS011;2920;48.158;12.254;2022-09-09T14:23:10;2.83;;;0.85;;
5787;SDS011;2920;48.158;12.254;2022-09-09T14:25:38;2.47;;;0.95;;
5787;SDS011;2920;48.158;12.254;2022-09-09T14:28:04;0.88;;;0.82;;
5787;SDS011;2920;48.158;12.254;2022-09-09T14:30:30;1.90;;;0.90;;
5787;SDS011;2920;48.158;12.254;2022-09-09T14:32:55;1.88;;;1.08;;
5787;SDS011;2920;48.158;12.254;2022-09-09T14:35:20;1.30;;;1.08;;
5787;SDS011;2920;48.158;12.254;2022-09-09T14:37:47;2.25;;;0.90;;
5787;SDS011;2920;48.158;12.254;2022-09-09T14:40:13;1.33;;;0.98;;
5787;SDS011;2920;48.158;12.254;2022-09-09T14:42:40;1.20;;;0.95;;
5787;SDS011;2920;48.158;12.254;2022-09-09T14:45:06;2.17;;;1.33;;
5787;SDS011;2920;48.158;12.254;2022-09-09T14:47:31;1.27;;;1.05;;
5787;SDS011;2920;48.158;12.254;2022-09-09T14:49:57;1.50;;;0.95;;
5787;SDS011;2920;48.158;12.254;2022-09-09T14:52:22;2.00;;;1.13;;
5787;SDS011;2920;48.158;12.254;2022-09-09T14:54:47;2.83;;;1.00;;
5787;SDS011;2920;48.158;12.254;2022-09-09T14:57:13;1.40;;;1.00;;
5787;SDS011;2920;48.158;12.254;2022-09-09T14:59:38;1.65;;;1.23;;
5787;SDS011;2920;48.158;12.254;2022-09-09T15:02:04;0.80;;;0.80;;
5787;SDS011;2920;48.158;12.254;2022-09-09T15:04:29;1.80;;;1.00;;
5787;SDS011;2920;48.158;12.254;2022-09-09T15:06:55;2.42;;;0.85;;
5787;SDS011;2920;48.158;12.254;2022-09-09T15:09:20;1.50;;;0.85;;
5787;SDS011;2920;48.158;12.254;2022-09-09T15:11:45;0.82;;;0.65;;
5787;SDS011;2920;48.158;12.254;2022-09-09T15:14:11;0.70;;;0.70;;
5787;SDS011;2920;48.158;12.254;2022-09-09T15:16:37;0.88;;;0.85;;
5787;SDS011;2920;48.158;12.254;2022-09-09T15:19:03;1.58;;;1.10;;
5787;SDS011;2920;48.158;12.254;2022-09-09T15:21:33;0.63;;;0.63;;
5787;SDS011;2920;48.158;12.254;2022-09-09T15:23:59;0.82;;;0.75;;
5787;SDS011;2920;48.158;12.254;2022-09-09T15:26:25;0.90;;;0.70;;
5787;SDS011;2920;48.158;12.254;2022-09-09T15:28:52;1.20;;;1.10;;
5787;SDS011;2920;48.158;12.254;2022-09-09T15:31:21;1.58;;;0.98;;
5787;SDS011;2920;48.158;12.254;2022-09-09T15:36:17;0.90;;;0.80;;
5787;SDS011;2920;48.158;12.254;2022-09-09T15:38:49;0.57;;;0.57;;
5787;SDS011;2920;48.158;12.254;2022-09-09T15:41:15;1.75;;;1.20;;
5787;SDS011;2920;48.158;12.254;2022-09-09T15:43:45;1.60;;;0.95;;
5787;SDS011;2920;48.158;12.254;2022-09-09T15:48:46;1.60;;;0.98;;
5787;SDS011;2920;48.158;12.254;2022-09-09T15:51:13;1.33;;;1.05;;
5787;SDS011;2920;48.158;12.254;2022-09-09T15:53:39;1.25;;;0.98;;
5787;SDS011;2920;48.158;12.254;2022-09-09T15:56:08;2.13;;;0.85;;
5787;SDS011;2920;48.158;12.254;2022-09-09T15:58:34;0.95;;;0.90;;
5787;SDS011;2920;48.158;12.254;2022-09-09T16:01:04;0.47;;;0.47;;
5787;SDS011;2920;48.158;12.254;2022-09-09T16:03:36;0.50;;;0.50;;
5787;SDS011;2920;48.158;12.254;2022-09-09T16:06:03;0.60;;;0.60;;
5787;SDS011;2920;48.158;12.254;2022-09-09T16:08:33;0.85;;;0.73;;
5787;SDS011;2920;48.158;12.254;2022-09-09T16:13:35;0.95;;;0.70;;
5787;SDS011;2920;48.158;12.254;2022-09-09T16:16:01;1.48;;;0.90;;
5787;SDS011;2920;48.158;12.254;2022-09-09T16:18:32;0.73;;;0.65;;
5787;SDS011;2920;48.158;12.254;2022-09-09T16:20:58;0.80;;;0.80;;
5787;SDS011;2920;48.158;12.254;2022-09-09T16:23:24;1.50;;;0.85;;
5787;SDS011;2920;48.158;12.254;2022-09-09T16:25:55;1.10;;;0.90;;
5787;SDS011;2920;48.158;12.254;2022-09-09T16:28:21;1.55;;;1.05;;
5787;SDS011;2920;48.158;12.254;2022-09-09T16:30:47;0.90;;;0.90;;
5787;SDS011;2920;48.158;12.254;2022-09-09T16:33:12;1.25;;;1.10;;
5787;SDS011;2920;48.158;12.254;2022-09-09T16:35:39;4.18;;;0.93;;
5787;SDS011;2920;48.158;12.254;2022-09-09T16:38:05;1.85;;;1.10;;
5787;SDS011;2920;48.158;12.254;2022-09-09T16:40:33;1.23;;;0.93;;
5787;SDS011;2920;48.158;12.254;2022-09-09T16:43:02;1.52;;;0.90;;
5787;SDS011;2920;48.158;12.254;2022-09-09T16:45:28;1.40;;;0.93;;
5787;SDS011;2920;48.158;12.254;2022-09-09T16:47:54;2.75;;;1.30;;
5787;SDS011;2920;48.158;12.254;2022-09-09T16:50:19;2.03;;;0.95;;
5787;SDS011;2920;48.158;12.254;2022-09-09T16:52:44;2.30;;;1.00;;
5787;SDS011;2920;48.158;12.254;2022-09-09T16:55:10;2.08;;;1.10;;
5787;SDS011;2920;48.158;12.254;2022-09-09T16:57:35;1.50;;;1.00;;
5787;SDS011;2920;48.158;12.254;2022-09-09T17:00:00;1.15;;;0.95;;
5787;SDS011;2920;48.158;12.254;2022-09-09T17:02:29;1.25;;;0.95;;
5787;SDS011;2920;48.158;12.254;2022-09-09T17:04:55;1.23;;;0.88;;
5787;SDS011;2920;48.158;12.254;2022-09-09T17:07:20;1.65;;;1.20;;
5787;SDS011;2920;48.158;12.254;2022-09-09T17:09:45;0.98;;;0.88;;
5787;SDS011;2920;48.158;12.254;2022-09-09T17:12:11;1.45;;;1.10;;
5787;SDS011;2920;48.158;12.254;2022-09-09T17:14:37;1.05;;;0.90;;
5787;SDS011;2920;48.158;12.254;2022-09-09T17:17:03;1.13;;;1.02;;
5787;SDS011;2920;48.158;12.254;2022-09-09T17:19:29;1.05;;;0.98;;
5787;SDS011;2920;48.158;12.254;2022-09-09T17:21:55;0.75;;;0.73;;
5787;SDS011;2920;48.158;12.254;2022-09-09T17:24:21;1.00;;;0.90;;
5787;SDS011;2920;48.158;12.254;2022-09-09T17:26:47;1.63;;;1.15;;
5787;SDS011;2920;48.158;12.254;2022-09-09T17:29:12;0.88;;;0.80;;
5787;SDS011;2920;48.158;12.254;2022-09-09T17:31:38;1.20;;;1.00;;
5787;SDS011;2920;48.158;12.254;2022-09-09T17:34:04;1.10;;;1.00;;
5787;SDS011;2920;48.158;12.254;2022-09-09T17:36:31;1.10;;;1.00;;
5787;SDS011;2920;48.158;12.254;2022-09-09T17:38:58;2.50;;;1.48;;
5787;SDS011;2920;48.158;12.254;2022-09-09T17:41:26;2.08;;;1.10;;
5787;SDS011;2920;48.158;12.254;2022-09-09T17:43:52;1.92;;;1.13;;
5787;SDS011;2920;48.158;12.254;2022-09-09T17:46:22;3.83;;;1.30;;
5787;SDS011;2920;48.158;12.254;2022-09-09T17:48:50;1.02;;;0.90;;
5787;SDS011;2920;48.158;12.254;2022-09-09T17:51:17;1.63;;;1.20;;